sensor_id;sensor_type;location;lat;lon;timestamp;pressure;altitude;pressure_sealevel;temperature;humidity
43326;BME280;28920;59.862;30.636;2022-10-31T00:01:51;100550.69;;;-0.04;80.38
43326;BME280;28920;59.862;30.636;2022-10-31T00:04:19;100557.00;;;-0.09;80.40
43326;BME280;28920;59.862;30.636;2022-10-31T00:06:46;100548.41;;;-0.15;80.17
43326;BME280;28920;59.862;30.636;2022-10-31T00:09:13;100554.47;;;-0.12;80.52
43326;BME280;28920;59.862;30.636;2022-10-31T00:11:41;100565.97;;;-0.17;81.00
43326;BME280;28920;59.862;30.636;2022-10-31T00:14:08;100568.63;;;-0.18;81.76
43326;BME280;28920;59.862;30.636;2022-10-31T00:16:35;100574.16;;;-0.26;81.60
43326;BME280;28920;59.862;30.636;2022-10-31T00:24:08;100575.13;;;-0.30;82.31
43326;BME280;28920;59.862;30.636;2022-10-31T00:26:35;100587.38;;;-0.29;82.54
43326;BME280;28920;59.862;30.636;2022-10-31T00:29:02;100590.00;;;-0.29;82.02
43326;BME280;28920;59.862;30.636;2022-10-31T00:31:30;100601.28;;;-0.27;83.17
43326;BME280;28920;59.862;30.636;2022-10-31T00:33:57;100603.25;;;-0.34;82.99
43326;BME280;28920;59.862;30.636;2022-10-31T00:36:25;100610.34;;;-0.37;84.03
43326;BME280;28920;59.862;30.636;2022-10-31T00:38:52;100606.84;;;-0.38;83.93
43326;BME280;28920;59.862;30.636;2022-10-31T00:46:20;100627.78;;;-0.36;84.37
43326;BME280;28920;59.862;30.636;2022-10-31T00:48:50;100637.50;;;-0.40;84.29
43326;BME280;28920;59.862;30.636;2022-10-31T00:51:17;100633.31;;;-0.46;84.95
43326;BME280;28920;59.862;30.636;2022-10-31T00:53:44;100623.59;;;-0.42;85.37
43326;BME280;28920;59.862;30.636;2022-10-31T00:56:12;100641.06;;;-0.43;84.90
43326;BME280;28920;59.862;30.636;2022-10-31T00:58:40;100652.50;;;-0.45;86.43
43326;BME280;28920;59.862;30.636;2022-10-31T01:01:08;100655.31;;;-0.51;86.46
43326;BME280;28920;59.862;30.636;2022-10-31T01:08:34;100661.69;;;-0.60;86.86
43326;BME280;28920;59.862;30.636;2022-10-31T01:11:06;100660.69;;;-0.56;86.61
43326;BME280;28920;59.862;30.636;2022-10-31T01:13:33;100665.31;;;-0.64;86.88
43326;BME280;28920;59.862;30.636;2022-10-31T01:16:02;100670.56;;;-0.64;87.69
43326;BME280;28920;59.862;30.636;2022-10-31T01:18:30;100668.84;;;-0.65;87.48
43326;BME280;28920;59.862;30.636;2022-10-31T01:20:58;100669.88;;;-0.71;88.72
43326;BME280;28920;59.862;30.636;2022-10-31T01:23:26;100674.34;;;-0.75;88.60
43326;BME280;28920;59.862;30.636;2022-10-31T01:30:16;100682.84;;;-0.66;88.47
43326;BME280;28920;59.862;30.636;2022-10-31T01:32:44;100685.47;;;-0.66;88.41
43326;BME280;28920;59.862;30.636;2022-10-31T01:35:11;100689.19;;;-0.75;89.79
43326;BME280;28920;59.862;30.636;2022-10-31T01:37:38;100696.34;;;-0.80;90.46
43326;BME280;28920;59.862;30.636;2022-10-31T01:40:06;100694.50;;;-0.77;89.48
43326;BME280;28920;59.862;30.636;2022-10-31T01:42:34;100696.38;;;-0.82;90.62
43326;BME280;28920;59.862;30.636;2022-10-31T01:45:01;100707.69;;;-0.80;90.28
43326;BME280;28920;59.862;30.636;2022-10-31T01:52:31;100726.78;;;-0.76;90.81
43326;BME280;28920;59.862;30.636;2022-10-31T01:55:03;100722.53;;;-0.80;90.71
43326;BME280;28920;59.862;30.636;2022-10-31T01:57:33;100733.91;;;-0.80;91.33
43326;BME280;28920;59.862;30.636;2022-10-31T02:00:05;100729.34;;;-0.73;90.80
43326;BME280;28920;59.862;30.636;2022-10-31T02:02:40;100733.78;;;-0.77;91.12
43326;BME280;28920;59.862;30.636;2022-10-31T02:05:12;100741.66;;;-0.77;91.06
43326;BME280;28920;59.862;30.636;2022-10-31T02:07:47;100753.09;;;-0.81;91.76
43326;BME280;28920;59.862;30.636;2022-10-31T02:15:14;100755.84;;;-0.86;91.96
43326;BME280;28920;59.862;30.636;2022-10-31T02:17:42;100764.59;;;-0.85;91.75
43326;BME280;28920;59.862;30.636;2022-10-31T02:20:14;100772.53;;;-0.88;92.30
43326;BME280;28920;59.862;30.636;2022-10-31T02:23:11;100767.28;;;-0.88;93.18
43326;BME280;28920;59.862;30.636;2022-10-31T02:26:14;100780.31;;;-0.85;92.73
43326;BME280;28920;59.862;30.636;2022-10-31T02:29:05;100783.00;;;-0.88;93.47
43326;BME280;28920;59.862;30.636;2022-10-31T02:36:14;100799.87;;;-0.99;94.28
43326;BME280;28920;59.862;30.636;2022-10-31T02:38:51;100795.44;;;-0.96;94.29
43326;BME280;28920;59.862;30.636;2022-10-31T02:41:31;100804.22;;;-0.99;94.46
43326;BME280;28920;59.862;30.636;2022-10-31T02:44:06;100804.31;;;-1.02;94.85
43326;BME280;28920;59.862;30.636;2022-10-31T02:46:43;100811.31;;;-1.03;95.14
43326;BME280;28920;59.862;30.636;2022-10-31T02:49:16;100807.00;;;-1.05;95.01
43326;BME280;28920;59.862;30.636;2022-10-31T02:56:43;100828.22;;;-1.15;96.36
43326;BME280;28920;59.862;30.636;2022-10-31T02:59:11;100823.91;;;-1.17;96.11
43326;BME280;28920;59.862;30.636;2022-10-31T03:01:54;100829.06;;;-1.14;96.63
43326;BME280;28920;59.862;30.636;2022-10-31T03:04:45;100839.44;;;-1.11;96.44
43326;BME280;28920;59.862;30.636;2022-10-31T03:07:22;100841.19;;;-1.10;96.16
43326;BME280;28920;59.862;30.636;2022-10-31T03:10:00;100845.59;;;-1.12;96.84
43326;BME280;28920;59.862;30.636;2022-10-31T03:16:45;100856.22;;;-1.18;97.02
43326;BME280;28920;59.862;30.636;2022-10-31T03:19:16;100861.50;;;-1.21;97.35
43326;BME280;28920;59.862;30.636;2022-10-31T03:21:48;100872.03;;;-1.23;97.39
43326;BME280;28920;59.862;30.636;2022-10-31T03:24:18;100873.94;;;-1.30;98.39
43326;BME280;28920;59.862;30.636;2022-10-31T03:26:53;100884.44;;;-1.31;98.45
43326;BME280;28920;59.862;30.636;2022-10-31T03:29:26;100883.66;;;-1.35;99.26
43326;BME280;28920;59.862;30.636;2022-10-31T03:34:35;100882.00;;;-1.39;98.92
43326;BME280;28920;59.862;30.636;2022-10-31T03:37:06;100889.88;;;-1.41;99.49
43326;BME280;28920;59.862;30.636;2022-10-31T03:39:36;100892.47;;;-1.39;100.00
43326;BME280;28920;59.862;30.636;2022-10-31T03:42:09;100892.59;;;-1.45;100.00
43326;BME280;28920;59.862;30.636;2022-10-31T03:44:41;100894.31;;;-1.43;100.00
43326;BME280;28920;59.862;30.636;2022-10-31T03:47:10;100905.72;;;-1.47;100.00
43326;BME280;28920;59.862;30.636;2022-10-31T03:49:38;100913.62;;;-1.48;100.00
43326;BME280;28920;59.862;30.636;2022-10-31T03:57:08;100916.38;;;-1.56;100.00
43326;BME280;28920;59.862;30.636;2022-10-31T03:59:44;100918.09;;;-1.54;100.00
43326;BME280;28920;59.862;30.636;2022-10-31T04:02:16;100911.91;;;-1.49;100.00
43326;BME280;28920;59.862;30.636;2022-10-31T04:04:46;100921.50;;;-1.50;100.00
43326;BME280;28920;59.862;30.636;2022-10-31T04:07:15;100923.22;;;-1.49;100.00
43326;BME280;28920;59.862;30.636;2022-10-31T04:09:50;100914.63;;;-1.54;100.00
43326;BME280;28920;59.862;30.636;2022-10-31T04:16:01;100932.13;;;-1.58;100.00
43326;BME280;28920;59.862;30.636;2022-10-31T04:18:29;100944.31;;;-1.57;100.00
43326;BME280;28920;59.862;30.636;2022-10-31T04:21:00;100940.00;;;-1.58;100.00
43326;BME280;28920;59.862;30.636;2022-10-31T04:23:27;100927.63;;;-1.51;100.00
43326;BME280;28920;59.862;30.636;2022-10-31T04:25:55;100935.69;;;-1.62;100.00
43326;BME280;28920;59.862;30.636;2022-10-31T04:28:22;100934.81;;;-1.61;100.00
43326;BME280;28920;59.862;30.636;2022-10-31T04:34:27;100948.84;;;-1.65;100.00
43326;BME280;28920;59.862;30.636;2022-10-31T04:36:56;100945.41;;;-1.67;100.00
43326;BME280;28920;59.862;30.636;2022-10-31T04:39:23;100942.00;;;-1.72;100.00
43326;BME280;28920;59.862;30.636;2022-10-31T04:41:51;100948.22;;;-1.78;100.00
43326;BME280;28920;59.862;30.636;2022-10-31T04:44:18;100948.22;;;-1.76;100.00
43326;BME280;28920;59.862;30.636;2022-10-31T04:46:47;100956.97;;;-1.77;100.00
43326;BME280;28920;59.862;30.636;2022-10-31T04:49:14;100963.13;;;-1.82;100.00
43326;BME280;28920;59.862;30.636;2022-10-31T04:56:41;100963.25;;;-1.88;100.00
43326;BME280;28920;59.862;30.636;2022-10-31T04:59:09;100962.37;;;-1.88;100.00
43326;BME280;28920;59.862;30.636;2022-10-31T05:01:39;100961.59;;;-1.92;100.00
43326;BME280;28920;59.862;30.636;2022-10-31T05:04:06;100968.50;;;-1.88;100.00
43326;BME280;28920;59.862;30.636;2022-10-31T05:06:33;100966.81;;;-1.92;100.00
43326;BME280;28920;59.862;30.636;2022-10-31T05:09:00;100969.41;;;-1.90;100.00
43326;BME280;28920;59.862;30.636;2022-10-31T05:11:28;100977.31;;;-1.93;100.00
43326;BME280;28920;59.862;30.636;2022-10-31T05:18:23;100972.22;;;-2.01;100.00
43326;BME280;28920;59.862;30.636;2022-10-31T05:20:55;100980.09;;;-2.03;100.00
43326;BME280;28920;59.862;30.636;2022-10-31T05:23:22;100989.75;;;-2.06;100.00
43326;BME280;28920;59.862;30.636;2022-10-31T05:25:49;101000.22;;;-2.06;100.00
43326;BME280;28920;59.862;30.636;2022-10-31T05:28:17;100998.44;;;-2.04;100.00
43326;BME280;28920;59.862;30.636;2022-10-31T05:30:44;101010.63;;;-2.03;100.00
43326;BME280;28920;59.862;30.636;2022-10-31T05:33:12;101005.38;;;-2.03;100.00
43326;BME280;28920;59.862;30.636;2022-10-31T05:38:20;101021.91;;;-2.01;100.00
43326;BME280;28920;59.862;30.636;2022-10-31T05:40:48;101031.44;;;-1.97;100.00
43326;BME280;28920;59.862;30.636;2022-10-31T05:43:15;101027.88;;;-1.93;100.00
43326;BME280;28920;59.862;30.636;2022-10-31T05:45:42;101043.47;;;-1.88;100.00
43326;BME280;28920;59.862;30.636;2022-10-31T05:48:12;101047.81;;;-1.87;100.00
43326;BME280;28920;59.862;30.636;2022-10-31T05:50:44;101046.06;;;-1.85;100.00
43326;BME280;28920;59.862;30.636;2022-10-31T05:53:11;101048.56;;;-1.80;100.00
43326;BME280;28920;59.862;30.636;2022-10-31T06:00:44;101060.63;;;-1.72;100.00
43326;BME280;28920;59.862;30.636;2022-10-31T06:03:12;101058.84;;;-1.71;100.00
43326;BME280;28920;59.862;30.636;2022-10-31T06:05:40;101060.53;;;-1.67;100.00
43326;BME280;28920;59.862;30.636;2022-10-31T06:08:07;101072.72;;;-1.66;100.00
43326;BME280;28920;59.862;30.636;2022-10-31T06:10:35;101076.19;;;-1.64;100.00
43326;BME280;28920;59.862;30.636;2022-10-31T06:13:02;101080.53;;;-1.63;100.00
43326;BME280;28920;59.862;30.636;2022-10-31T06:15:30;101070.06;;;-1.63;100.00
43326;BME280;28920;59.862;30.636;2022-10-31T06:22:59;101064.78;;;-1.60;100.00
43326;BME280;28920;59.862;30.636;2022-10-31T06:25:28;101079.25;;;-1.40;100.00
43326;BME280;28920;59.862;30.636;2022-10-31T06:27:55;101092.84;;;-1.22;100.00
43326;BME280;28920;59.862;30.636;2022-10-31T06:30:23;101093.25;;;-0.99;100.00
43326;BME280;28920;59.862;30.636;2022-10-31T06:32:50;101098.72;;;-0.68;100.00
43326;BME280;28920;59.862;30.636;2022-10-31T06:35:19;101098.25;;;-0.47;100.00
43326;BME280;28920;59.862;30.636;2022-10-31T06:37:51;101091.47;;;-0.19;100.00
43326;BME280;28920;59.862;30.636;2022-10-31T06:44:26;101105.31;;;0.22;99.87
43326;BME280;28920;59.862;30.636;2022-10-31T06:47:15;101110.12;;;0.39;99.40
43326;BME280;28920;59.862;30.636;2022-10-31T06:49:43;101105.59;;;0.46;97.27
43326;BME280;28920;59.862;30.636;2022-10-31T06:52:11;101108.00;;;0.54;96.61
43326;BME280;28920;59.862;30.636;2022-10-31T06:54:38;101109.38;;;0.67;96.40
43326;BME280;28920;59.862;30.636;2022-10-31T06:57:05;101099.31;;;0.83;96.20
43326;BME280;28920;59.862;30.636;2022-10-31T06:59:33;101102.47;;;0.96;95.15
43326;BME280;28920;59.862;30.636;2022-10-31T07:07:00;101121.94;;;1.19;93.52
43326;BME280;28920;59.862;30.636;2022-10-31T07:09:28;101111.13;;;1.30;93.38
43326;BME280;28920;59.862;30.636;2022-10-31T07:11:56;101111.69;;;1.40;92.43
43326;BME280;28920;59.862;30.636;2022-10-31T07:14:23;101111.47;;;1.48;92.43
43326;BME280;28920;59.862;30.636;2022-10-31T07:16:52;101121.84;;;1.52;91.85
43326;BME280;28920;59.862;30.636;2022-10-31T07:19:22;101117.78;;;1.71;92.30
43326;BME280;28920;59.862;30.636;2022-10-31T07:21:49;101126.78;;;1.92;91.01
43326;BME280;28920;59.862;30.636;2022-10-31T07:29:12;101142.47;;;2.22;88.97
43326;BME280;28920;59.862;30.636;2022-10-31T07:31:40;101146.59;;;2.29;88.57
43326;BME280;28920;59.862;30.636;2022-10-31T07:34:08;101155.91;;;2.40;87.71
43326;BME280;28920;59.862;30.636;2022-10-31T07:36:36;101165.34;;;2.47;88.64
43326;BME280;28920;59.862;30.636;2022-10-31T07:39:04;101161.75;;;2.49;88.19
43326;BME280;28920;59.862;30.636;2022-10-31T07:41:31;101182.66;;;2.54;87.65
43326;BME280;28920;59.862;30.636;2022-10-31T07:43:59;101191.25;;;2.59;87.30
43326;BME280;28920;59.862;30.636;2022-10-31T07:51:28;101188.81;;;2.28;89.06
43326;BME280;28920;59.862;30.636;2022-10-31T07:53:58;101197.47;;;2.03;89.06
43326;BME280;28920;59.862;30.636;2022-10-31T07:56:30;101198.59;;;1.96;91.20
43326;BME280;28920;59.862;30.636;2022-10-31T07:58:58;101206.75;;;2.15;90.27
43326;BME280;28920;59.862;30.636;2022-10-31T08:01:25;101205.06;;;2.41;89.30
43326;BME280;28920;59.862;30.636;2022-10-31T08:03:58;101206.22;;;2.59;88.03
43326;BME280;28920;59.862;30.636;2022-10-31T08:06:43;101209.16;;;2.49;87.94
43326;BME280;28920;59.862;30.636;2022-10-31T08:14:09;101214.41;;;2.22;90.00
43326;BME280;28920;59.862;30.636;2022-10-31T08:16:37;101223.63;;;2.09;90.60
43326;BME280;28920;59.862;30.636;2022-10-31T08:19:05;101229.53;;;2.16;92.32
43326;BME280;28920;59.862;30.636;2022-10-31T08:21:35;101236.13;;;2.29;91.21
43326;BME280;28920;59.862;30.636;2022-10-31T08:24:03;101246.28;;;2.42;90.28
43326;BME280;28920;59.862;30.636;2022-10-31T08:26:32;101245.62;;;2.62;89.93
43326;BME280;28920;59.862;30.636;2022-10-31T08:28:59;101257.53;;;2.74;89.90
43326;BME280;28920;59.862;30.636;2022-10-31T08:36:27;101276.28;;;2.64;89.11
43326;BME280;28920;59.862;30.636;2022-10-31T08:38:55;101282.75;;;2.54;89.71
43326;BME280;28920;59.862;30.636;2022-10-31T08:41:22;101284.03;;;2.69;90.09
43326;BME280;28920;59.862;30.636;2022-10-31T08:43:49;101274.53;;;2.90;89.69
43326;BME280;28920;59.862;30.636;2022-10-31T08:46:18;101287.16;;;3.33;88.83
43326;BME280;28920;59.862;30.636;2022-10-31T08:48:47;101285.25;;;3.62;86.83
43326;BME280;28920;59.862;30.636;2022-10-31T08:51:15;101290.03;;;3.98;84.92
43326;BME280;28920;59.862;30.636;2022-10-31T08:58:41;101291.25;;;4.36;81.67
43326;BME280;28920;59.862;30.636;2022-10-31T09:01:10;101302.59;;;4.38;81.30
43326;BME280;28920;59.862;30.636;2022-10-31T09:03:37;101303.22;;;4.22;82.00
43326;BME280;28920;59.862;30.636;2022-10-31T09:06:05;101302.59;;;4.15;82.71
43326;BME280;28920;59.862;30.636;2022-10-31T09:08:35;101306.31;;;4.34;82.38
43326;BME280;28920;59.862;30.636;2022-10-31T09:11:03;101301.28;;;4.50;81.57
43326;BME280;28920;59.862;30.636;2022-10-31T09:13:33;101297.56;;;4.76;80.15
43326;BME280;28920;59.862;30.636;2022-10-31T09:21:01;101311.37;;;4.60;79.38
43326;BME280;28920;59.862;30.636;2022-10-31T09:23:31;101314.03;;;4.60;79.72
43326;BME280;28920;59.862;30.636;2022-10-31T09:26:01;101320.19;;;4.61;80.92
43326;BME280;28920;59.862;30.636;2022-10-31T09:28:28;101327.97;;;4.64;80.28
43326;BME280;28920;59.862;30.636;2022-10-31T09:30:58;101320.56;;;4.74;79.68
43326;BME280;28920;59.862;30.636;2022-10-31T09:33:26;101331.78;;;4.79;79.01
43326;BME280;28920;59.862;30.636;2022-10-31T09:35:58;101329.38;;;4.95;78.19
43326;BME280;28920;59.862;30.636;2022-10-31T09:43:30;101341.00;;;5.34;76.69
43326;BME280;28920;59.862;30.636;2022-10-31T09:46:06;101345.47;;;5.53;75.96
43326;BME280;28920;59.862;30.636;2022-10-31T09:48:49;101343.88;;;5.49;74.72
43326;BME280;28920;59.862;30.636;2022-10-31T09:51:20;101344.28;;;5.39;75.27
43326;BME280;28920;59.862;30.636;2022-10-31T09:53:52;101354.56;;;5.47;76.99
43326;BME280;28920;59.862;30.636;2022-10-31T09:56:22;101355.25;;;5.51;74.88
43326;BME280;28920;59.862;30.636;2022-10-31T09:58:53;101357.78;;;5.33;75.95
43326;BME280;28920;59.862;30.636;2022-10-31T10:06:28;101379.72;;;5.77;74.23
43326;BME280;28920;59.862;30.636;2022-10-31T10:09:05;101382.66;;;5.50;72.08
43326;BME280;28920;59.862;30.636;2022-10-31T10:11:46;101380.75;;;5.10;75.00
43326;BME280;28920;59.862;30.636;2022-10-31T10:14:29;101356.69;;;4.73;75.82
43326;BME280;28920;59.862;30.636;2022-10-31T10:17:13;101380.88;;;4.86;75.49
43326;BME280;28920;59.862;30.636;2022-10-31T10:19:53;101389.34;;;4.95;75.57
43326;BME280;28920;59.862;30.636;2022-10-31T10:26:15;101393.37;;;5.26;73.80
43326;BME280;28920;59.862;30.636;2022-10-31T10:28:46;101398.84;;;5.21;73.89
43326;BME280;28920;59.862;30.636;2022-10-31T10:31:16;101397.38;;;5.14;73.65
43326;BME280;28920;59.862;30.636;2022-10-31T10:33:51;101400.63;;;5.21;73.87
43326;BME280;28920;59.862;30.636;2022-10-31T10:36:26;101398.81;;;5.23;73.32
43326;BME280;28920;59.862;30.636;2022-10-31T10:38:58;101404.09;;;5.43;72.88
43326;BME280;28920;59.862;30.636;2022-10-31T10:46:32;101408.88;;;5.56;71.54
43326;BME280;28920;59.862;30.636;2022-10-31T10:49:23;101412.09;;;5.83;71.63
43326;BME280;28920;59.862;30.636;2022-10-31T10:51:58;101376.31;;;5.75;69.31
43326;BME280;28920;59.862;30.636;2022-10-31T10:54:46;101408.09;;;6.15;69.77
43326;BME280;28920;59.862;30.636;2022-10-31T10:57:27;101411.34;;;6.01;69.12
43326;BME280;28920;59.862;30.636;2022-10-31T11:00:12;101407.31;;;5.92;68.16
43326;BME280;28920;59.862;30.636;2022-10-31T11:09:22;101414.28;;;5.94;67.78
43326;BME280;28920;59.862;30.636;2022-10-31T11:11:49;101410.97;;;5.89;67.11
43326;BME280;28920;59.862;30.636;2022-10-31T11:14:17;101415.84;;;5.98;67.16
43326;BME280;28920;59.862;30.636;2022-10-31T11:16:46;101427.94;;;6.25;67.31
43326;BME280;28920;59.862;30.636;2022-10-31T11:19:17;101417.31;;;6.65;65.54
43326;BME280;28920;59.862;30.636;2022-10-31T11:21:46;101426.31;;;6.80;64.72
43326;BME280;28920;59.862;30.636;2022-10-31T11:24:17;101432.97;;;6.89;64.74
43326;BME280;28920;59.862;30.636;2022-10-31T11:31:45;101428.47;;;7.08;62.96
43326;BME280;28920;59.862;30.636;2022-10-31T11:34:18;101426.03;;;7.04;64.48
43326;BME280;28920;59.862;30.636;2022-10-31T11:36:45;101428.69;;;7.04;63.23
43326;BME280;28920;59.862;30.636;2022-10-31T11:39:17;101430.03;;;6.95;64.12
43326;BME280;28920;59.862;30.636;2022-10-31T11:41:49;101414.28;;;6.73;63.58
43326;BME280;28920;59.862;30.636;2022-10-31T11:44:19;101423.66;;;6.61;62.78
43326;BME280;28920;59.862;30.636;2022-10-31T11:46:50;101423.09;;;6.35;64.97
43326;BME280;28920;59.862;30.636;2022-10-31T11:54:22;101417.91;;;5.92;66.28
43326;BME280;28920;59.862;30.636;2022-10-31T11:56:50;101412.06;;;5.64;67.15
43326;BME280;28920;59.862;30.636;2022-10-31T11:59:23;101417.88;;;5.73;68.71
43326;BME280;28920;59.862;30.636;2022-10-31T12:01:52;101411.19;;;5.64;68.95
43326;BME280;28920;59.862;30.636;2022-10-31T12:04:27;101412.19;;;5.61;67.93
43326;BME280;28920;59.862;30.636;2022-10-31T12:06:57;101404.16;;;5.42;67.07
43326;BME280;28920;59.862;30.636;2022-10-31T12:09:27;101419.44;;;5.35;68.64
43326;BME280;28920;59.862;30.636;2022-10-31T12:17:14;101422.09;;;5.35;68.18
43326;BME280;28920;59.862;30.636;2022-10-31T12:19:49;101421.34;;;5.32;68.03
43326;BME280;28920;59.862;30.636;2022-10-31T12:22:22;101421.75;;;5.00;70.59
43326;BME280;28920;59.862;30.636;2022-10-31T12:25:07;101421.38;;;4.65;71.50
43326;BME280;28920;59.862;30.636;2022-10-31T12:27:47;101438.47;;;4.78;71.39
43326;BME280;28920;59.862;30.636;2022-10-31T12:30:20;101433.87;;;4.37;73.17
43326;BME280;28920;59.862;30.636;2022-10-31T12:39:27;101431.56;;;3.79;76.06
43326;BME280;28920;59.862;30.636;2022-10-31T12:42:03;101433.72;;;3.67;77.68
43326;BME280;28920;59.862;30.636;2022-10-31T12:44:50;101438.06;;;3.68;77.39
43326;BME280;28920;59.862;30.636;2022-10-31T12:47:33;101430.06;;;3.71;77.83
43326;BME280;28920;59.862;30.636;2022-10-31T12:50:17;101440.50;;;3.74;78.22
43326;BME280;28920;59.862;30.636;2022-10-31T12:52:56;101439.31;;;3.58;78.34
43326;BME280;28920;59.862;30.636;2022-10-31T13:02:38;101446.91;;;3.40;78.65
43326;BME280;28920;59.862;30.636;2022-10-31T13:05:14;101444.69;;;3.28;80.23
43326;BME280;28920;59.862;30.636;2022-10-31T13:07:46;101451.00;;;3.24;80.62
43326;BME280;28920;59.862;30.636;2022-10-31T13:10:19;101452.88;;;3.20;81.12
43326;BME280;28920;59.862;30.636;2022-10-31T13:12:52;101454.56;;;3.23;81.36
43326;BME280;28920;59.862;30.636;2022-10-31T13:15:23;101454.84;;;3.13;81.83
43326;BME280;28920;59.862;30.636;2022-10-31T13:17:54;101456.91;;;3.03;81.39
43326;BME280;28920;59.862;30.636;2022-10-31T13:25:23;101468.66;;;2.93;82.85
43326;BME280;28920;59.862;30.636;2022-10-31T13:27:54;101471.25;;;2.95;82.89
43326;BME280;28920;59.862;30.636;2022-10-31T13:30:25;101473.00;;;2.94;82.93
43326;BME280;28920;59.862;30.636;2022-10-31T13:32:58;101481.78;;;2.95;83.03
43326;BME280;28920;59.862;30.636;2022-10-31T13:35:31;101487.16;;;2.91;82.84
43326;BME280;28920;59.862;30.636;2022-10-31T13:38:21;101480.91;;;2.94;83.09
43326;BME280;28920;59.862;30.636;2022-10-31T13:43:33;101475.59;;;2.67;82.48
43326;BME280;28920;59.862;30.636;2022-10-31T13:46:22;101474.75;;;2.65;83.64
43326;BME280;28920;59.862;30.636;2022-10-31T13:48:49;101447.72;;;2.28;82.28
43326;BME280;28920;59.862;30.636;2022-10-31T13:51:25;101480.66;;;2.43;84.40
43326;BME280;28920;59.862;30.636;2022-10-31T13:53:59;101484.28;;;2.39;84.29
43326;BME280;28920;59.862;30.636;2022-10-31T13:56:29;101484.25;;;2.41;83.95
43326;BME280;28920;59.862;30.636;2022-10-31T14:04:04;101494.31;;;2.26;85.29
43326;BME280;28920;59.862;30.636;2022-10-31T14:06:42;101493.59;;;2.21;85.56
43326;BME280;28920;59.862;30.636;2022-10-31T14:09:23;101489.19;;;2.20;85.80
43326;BME280;28920;59.862;30.636;2022-10-31T14:11:51;101496.59;;;2.39;85.46
43326;BME280;28920;59.862;30.636;2022-10-31T14:14:20;101499.22;;;2.07;85.76
43326;BME280;28920;59.862;30.636;2022-10-31T14:16:55;101488.75;;;2.04;86.07
43326;BME280;28920;59.862;30.636;2022-10-31T14:19:26;101491.75;;;1.90;87.01
43326;BME280;28920;59.862;30.636;2022-10-31T14:26:36;101483.47;;;1.72;90.59
43326;BME280;28920;59.862;30.636;2022-10-31T14:29:25;101492.31;;;1.68;92.00
43326;BME280;28920;59.862;30.636;2022-10-31T14:31:55;101492.06;;;1.43;91.54
43326;BME280;28920;59.862;30.636;2022-10-31T14:34:27;101492.22;;;1.36;93.19
43326;BME280;28920;59.862;30.636;2022-10-31T14:37:23;101492.94;;;1.43;93.70
43326;BME280;28920;59.862;30.636;2022-10-31T14:40:06;101486.22;;;1.30;96.15
43326;BME280;28920;59.862;30.636;2022-10-31T14:47:42;101489.44;;;1.06;97.65
43326;BME280;28920;59.862;30.636;2022-10-31T14:50:24;101486.06;;;1.00;99.62
43326;BME280;28920;59.862;30.636;2022-10-31T14:52:57;101479.47;;;0.80;100.00
43326;BME280;28920;59.862;30.636;2022-10-31T14:55:28;101487.50;;;0.74;100.00
43326;BME280;28920;59.862;30.636;2022-10-31T14:57:59;101484.06;;;0.72;100.00
43326;BME280;28920;59.862;30.636;2022-10-31T15:00:28;101481.63;;;0.62;100.00
43326;BME280;28920;59.862;30.636;2022-10-31T15:05:48;101482.75;;;0.49;100.00
43326;BME280;28920;59.862;30.636;2022-10-31T15:08:26;101479.47;;;0.80;98.57
43326;BME280;28920;59.862;30.636;2022-10-31T15:10:54;101472.44;;;0.39;100.00
43326;BME280;28920;59.862;30.636;2022-10-31T15:13:22;101465.66;;;0.29;100.00
43326;BME280;28920;59.862;30.636;2022-10-31T15:15:51;101470.22;;;0.21;100.00
43326;BME280;28920;59.862;30.636;2022-10-31T15:18:25;101477.94;;;0.27;100.00
43326;BME280;28920;59.862;30.636;2022-10-31T15:20:56;101477.28;;;0.16;100.00
43326;BME280;28920;59.862;30.636;2022-10-31T15:26:03;101471.41;;;0.04;100.00
43326;BME280;28920;59.862;30.636;2022-10-31T15:28:32;101467.13;;;-0.02;100.00
43326;BME280;28920;59.862;30.636;2022-10-31T15:31:00;101462.81;;;-0.04;100.00
43326;BME280;28920;59.862;30.636;2022-10-31T15:33:29;101473.28;;;-0.04;100.00
43326;BME280;28920;59.862;30.636;2022-10-31T15:35:59;101476.81;;;-0.05;100.00
43326;BME280;28920;59.862;30.636;2022-10-31T15:38:28;101476.88;;;-0.08;100.00
43326;BME280;28920;59.862;30.636;2022-10-31T15:40:57;101485.66;;;-0.09;100.00
43326;BME280;28920;59.862;30.636;2022-10-31T15:48:24;101492.72;;;-0.15;100.00
43326;BME280;28920;59.862;30.636;2022-10-31T15:50:53;101498.88;;;-0.17;100.00
43326;BME280;28920;59.862;30.636;2022-10-31T15:53:25;101506.75;;;-0.17;100.00
43326;BME280;28920;59.862;30.636;2022-10-31T15:55:57;101506.81;;;-0.22;100.00
43326;BME280;28920;59.862;30.636;2022-10-31T15:58:25;101501.59;;;-0.22;100.00
43326;BME280;28920;59.862;30.636;2022-10-31T16:00:59;101507.78;;;-0.26;100.00
43326;BME280;28920;59.862;30.636;2022-10-31T16:07:14;101513.94;;;-0.27;100.00
43326;BME280;28920;59.862;30.636;2022-10-31T16:09:50;101513.16;;;-0.34;100.00
43326;BME280;28920;59.862;30.636;2022-10-31T16:12:18;101522.94;;;-0.44;100.00
43326;BME280;28920;59.862;30.636;2022-10-31T16:14:46;101510.72;;;-0.45;100.00
43326;BME280;28920;59.862;30.636;2022-10-31T16:17:14;101522.91;;;-0.42;100.00
43326;BME280;28920;59.862;30.636;2022-10-31T16:19:49;101516.75;;;-0.39;100.00
43326;BME280;28920;59.862;30.636;2022-10-31T16:22:24;101517.69;;;-0.44;100.00
43326;BME280;28920;59.862;30.636;2022-10-31T16:29:47;101520.53;;;-0.58;100.00
43326;BME280;28920;59.862;30.636;2022-10-31T16:32:26;101501.31;;;-0.58;100.00
43326;BME280;28920;59.862;30.636;2022-10-31T16:35:01;101529.13;;;-0.49;100.00
43326;BME280;28920;59.862;30.636;2022-10-31T16:37:40;101519.69;;;-0.58;100.00
43326;BME280;28920;59.862;30.636;2022-10-31T16:40:09;101517.97;;;-0.61;100.00